sensor_id;sensor_type;location;lat;lon;timestamp;temperature;humidity
41630;DHT22;27322;49.488;8.480;2022-11-21T00:00:18;8.40;99.90
41630;DHT22;27322;49.488;8.480;2022-11-21T00:02:44;8.40;99.90
41630;DHT22;27322;49.488;8.480;2022-11-21T00:05:10;8.40;99.90
41630;DHT22;27322;49.488;8.480;2022-11-21T00:07:35;8.50;99.90
41630;DHT22;27322;49.488;8.480;2022-11-21T00:10:02;8.50;99.90
41630;DHT22;27322;49.488;8.480;2022-11-21T00:12:27;8.40;99.90
41630;DHT22;27322;49.488;8.480;2022-11-21T00:14:53;8.50;99.90
41630;DHT22;27322;49.488;8.480;2022-11-21T00:17:18;8.50;99.90
41630;DHT22;27322;49.488;8.480;2022-11-21T00:19:44;8.40;99.90
41630;DHT22;27322;49.488;8.480;2022-11-21T00:22:09;8.40;99.90
41630;DHT22;27322;49.488;8.480;2022-11-21T00:24:35;8.50;99.90
41630;DHT22;27322;49.488;8.480;2022-11-21T00:27:01;8.50;99.90
41630;DHT22;27322;49.488;8.480;2022-11-21T00:29:27;8.40;99.90
41630;DHT22;27322;49.488;8.480;2022-11-21T00:31:52;8.50;99.90
41630;DHT22;27322;49.488;8.480;2022-11-21T00:34:18;8.50;99.90
41630;DHT22;27322;49.488;8.480;2022-11-21T00:36:44;8.40;99.90
41630;DHT22;27322;49.488;8.480;2022-11-21T00:39:09;8.40;99.90
41630;DHT22;27322;49.488;8.480;2022-11-21T00:41:35;8.40;99.90
41630;DHT22;27322;49.488;8.480;2022-11-21T00:44:00;8.40;99.90
41630;DHT22;27322;49.488;8.480;2022-11-21T00:46:26;8.40;99.90
41630;DHT22;27322;49.488;8.480;2022-11-21T00:48:52;8.40;99.90
41630;DHT22;27322;49.488;8.480;2022-11-21T00:51:17;8.40;99.90
41630;DHT22;27322;49.488;8.480;2022-11-21T00:53:43;8.40;99.90
41630;DHT22;27322;49.488;8.480;2022-11-21T00:56:08;8.40;99.90
41630;DHT22;27322;49.488;8.480;2022-11-21T00:58:34;8.40;99.90
41630;DHT22;27322;49.488;8.480;2022-11-21T01:01:13;8.40;99.90
41630;DHT22;27322;49.488;8.480;2022-11-21T01:03:39;8.40;99.90
41630;DHT22;27322;49.488;8.480;2022-11-21T01:06:07;8.40;99.90
41630;DHT22;27322;49.488;8.480;2022-11-21T01:08:36;8.40;99.90
41630;DHT22;27322;49.488;8.480;2022-11-21T01:11:03;8.40;99.90
41630;DHT22;27322;49.488;8.480;2022-11-21T01:13:29;8.40;99.90
41630;DHT22;27322;49.488;8.480;2022-11-21T01:15:55;8.40;99.90
41630;DHT22;27322;49.488;8.480;2022-11-21T01:18:20;8.40;99.90
41630;DHT22;27322;49.488;8.480;2022-11-21T01:20:46;8.30;99.90
41630;DHT22;27322;49.488;8.480;2022-11-21T01:23:11;8.40;99.90
41630;DHT22;27322;49.488;8.480;2022-11-21T01:25:37;8.30;99.90
41630;DHT22;27322;49.488;8.480;2022-11-21T01:28:03;8.40;99.90
41630;DHT22;27322;49.488;8.480;2022-11-21T01:30:28;8.40;99.90
41630;DHT22;27322;49.488;8.480;2022-11-21T01:32:54;8.30;99.90
41630;DHT22;27322;49.488;8.480;2022-11-21T01:35:19;8.40;99.90
41630;DHT22;27322;49.488;8.480;2022-11-21T01:37:46;8.30;99.90
41630;DHT22;27322;49.488;8.480;2022-11-21T01:40:13;8.30;99.90
41630;DHT22;27322;49.488;8.480;2022-11-21T01:42:57;8.30;99.90
41630;DHT22;27322;49.488;8.480;2022-11-21T01:45:57;8.30;99.90
41630;DHT22;27322;49.488;8.480;2022-11-21T01:53:35;8.20;99.90
41630;DHT22;27322;49.488;8.480;2022-11-21T01:56:03;8.20;99.90
41630;DHT22;27322;49.488;8.480;2022-11-21T01:58:30;8.20;99.90
41630;DHT22;27322;49.488;8.480;2022-11-21T02:00:57;8.20;99.90
41630;DHT22;27322;49.488;8.480;2022-11-21T02:03:27;8.20;99.90
41630;DHT22;27322;49.488;8.480;2022-11-21T02:05:54;8.10;99.90
41630;DHT22;27322;49.488;8.480;2022-11-21T02:08:22;8.10;99.90
41630;DHT22;27322;49.488;8.480;2022-11-21T02:11:09;8.10;99.90
41630;DHT22;27322;49.488;8.480;2022-11-21T02:13:36;8.10;99.90
41630;DHT22;27322;49.488;8.480;2022-11-21T02:16:02;8.10;99.90
41630;DHT22;27322;49.488;8.480;2022-11-21T02:18:28;8.10;99.90
41630;DHT22;27322;49.488;8.480;2022-11-21T02:21:02;8.10;99.90
41630;DHT22;27322;49.488;8.480;2022-11-21T02:23:40;8.10;99.90
41630;DHT22;27322;49.488;8.480;2022-11-21T02:26:07;8.10;99.90
41630;DHT22;27322;49.488;8.480;2022-11-21T02:28:33;8.10;99.90
41630;DHT22;27322;49.488;8.480;2022-11-21T02:30:59;8.10;99.90
41630;DHT22;27322;49.488;8.480;2022-11-21T02:33:24;8.10;99.90
41630;DHT22;27322;49.488;8.480;2022-11-21T02:36:00;8.10;99.90
41630;DHT22;27322;49.488;8.480;2022-11-21T02:38:31;8.10;99.90
41630;DHT22;27322;49.488;8.480;2022-11-21T02:41:03;8.10;99.90
41630;DHT22;27322;49.488;8.480;2022-11-21T02:43:35;8.10;99.90
41630;DHT22;27322;49.488;8.480;2022-11-21T02:46:02;8.10;99.90
41630;DHT22;27322;49.488;8.480;2022-11-21T02:48:28;8.10;99.90
41630;DHT22;27322;49.488;8.480;2022-11-21T02:50:53;8.10;99.90
41630;DHT22;27322;49.488;8.480;2022-11-21T02:53:19;8.10;99.90
41630;DHT22;27322;49.488;8.480;2022-11-21T02:55:44;8.10;99.90
41630;DHT22;27322;49.488;8.480;2022-11-21T02:58:10;8.20;99.90
41630;DHT22;27322;49.488;8.480;2022-11-21T03:00:38;8.20;99.90
41630;DHT22;27322;49.488;8.480;2022-11-21T03:03:04;8.20;99.90
41630;DHT22;27322;49.488;8.480;2022-11-21T03:05:30;8.20;99.90
41630;DHT22;27322;49.488;8.480;2022-11-21T03:07:56;8.20;99.90
41630;DHT22;27322;49.488;8.480;2022-11-21T03:10:22;8.20;99.90
41630;DHT22;27322;49.488;8.480;2022-11-21T03:12:47;8.20;99.90
41630;DHT22;27322;49.488;8.480;2022-11-21T03:15:14;8.20;99.90
41630;DHT22;27322;49.488;8.480;2022-11-21T03:17:40;8.30;99.90
41630;DHT22;27322;49.488;8.480;2022-11-21T03:20:06;8.30;99.90
41630;DHT22;27322;49.488;8.480;2022-11-21T03:22:32;8.30;99.90
41630;DHT22;27322;49.488;8.480;2022-11-21T03:24:58;8.30;99.90
41630;DHT22;27322;49.488;8.480;2022-11-21T03:27:24;8.30;99.90
41630;DHT22;27322;49.488;8.480;2022-11-21T03:29:49;8.30;99.90
41630;DHT22;27322;49.488;8.480;2022-11-21T03:32:15;8.30;99.90
41630;DHT22;27322;49.488;8.480;2022-11-21T03:34:40;8.30;99.90
41630;DHT22;27322;49.488;8.480;2022-11-21T03:37:07;8.30;99.90
41630;DHT22;27322;49.488;8.480;2022-11-21T03:39:32;8.30;99.90
41630;DHT22;27322;49.488;8.480;2022-11-21T03:41:58;8.30;99.90
41630;DHT22;27322;49.488;8.480;2022-11-21T03:44:23;8.40;99.90
41630;DHT22;27322;49.488;8.480;2022-11-21T03:46:49;8.40;99.90
41630;DHT22;27322;49.488;8.480;2022-11-21T03:49:15;8.30;99.90
41630;DHT22;27322;49.488;8.480;2022-11-21T03:51:41;8.40;99.90
41630;DHT22;27322;49.488;8.480;2022-11-21T03:54:07;8.40;99.90
41630;DHT22;27322;49.488;8.480;2022-11-21T03:56:33;8.30;99.90
41630;DHT22;27322;49.488;8.480;2022-11-21T03:58:59;8.30;99.90
41630;DHT22;27322;49.488;8.480;2022-11-21T04:01:25;8.30;99.90
41630;DHT22;27322;49.488;8.480;2022-11-21T04:03:50;8.30;99.90
41630;DHT22;27322;49.488;8.480;2022-11-21T04:06:18;8.30;99.90
41630;DHT22;27322;49.488;8.480;2022-11-21T04:08:44;8.30;99.90
41630;DHT22;27322;49.488;8.480;2022-11-21T04:11:10;8.30;99.90
41630;DHT22;27322;49.488;8.480;2022-11-21T04:13:36;8.30;99.90
41630;DHT22;27322;49.488;8.480;2022-11-21T04:16:02;8.30;99.90
41630;DHT22;27322;49.488;8.480;2022-11-21T04:18:28;8.30;99.90
41630;DHT22;27322;49.488;8.480;2022-11-21T04:20:57;8.40;99.90
41630;DHT22;27322;49.488;8.480;2022-11-21T04:23:24;8.40;99.90
41630;DHT22;27322;49.488;8.480;2022-11-21T04:25:50;8.40;99.90
41630;DHT22;27322;49.488;8.480;2022-11-21T04:28:16;8.40;99.90
41630;DHT22;27322;49.488;8.480;2022-11-21T04:30:41;8.30;99.90
41630;DHT22;27322;49.488;8.480;2022-11-21T04:33:07;8.30;99.90
41630;DHT22;27322;49.488;8.480;2022-11-21T04:35:33;8.30;99.90
41630;DHT22;27322;49.488;8.480;2022-11-21T04:37:58;8.30;99.90
41630;DHT22;27322;49.488;8.480;2022-11-21T04:40:24;8.30;99.90
41630;DHT22;27322;49.488;8.480;2022-11-21T04:42:49;8.30;99.90
41630;DHT22;27322;49.488;8.480;2022-11-21T04:45:16;8.40;99.90
41630;DHT22;27322;49.488;8.480;2022-11-21T04:47:43;8.30;99.90
41630;DHT22;27322;49.488;8.480;2022-11-21T04:50:11;8.40;99.90
41630;DHT22;27322;49.488;8.480;2022-11-21T04:52:37;8.40;99.90
41630;DHT22;27322;49.488;8.480;2022-11-21T04:55:03;8.30;99.90
41630;DHT22;27322;49.488;8.480;2022-11-21T04:57:30;8.40;99.90
41630;DHT22;27322;49.488;8.480;2022-11-21T04:59:56;8.40;99.90
41630;DHT22;27322;49.488;8.480;2022-11-21T05:02:22;8.40;99.90
41630;DHT22;27322;49.488;8.480;2022-11-21T05:04:48;8.40;99.90
41630;DHT22;27322;49.488;8.480;2022-11-21T05:07:14;8.40;99.90
41630;DHT22;27322;49.488;8.480;2022-11-21T05:09:39;8.50;99.90
41630;DHT22;27322;49.488;8.480;2022-11-21T05:12:05;8.50;99.90
41630;DHT22;27322;49.488;8.480;2022-11-21T05:14:50;8.50;99.90
41630;DHT22;27322;49.488;8.480;2022-11-21T05:17:15;8.40;99.90
41630;DHT22;27322;49.488;8.480;2022-11-21T05:19:41;8.40;99.90
41630;DHT22;27322;49.488;8.480;2022-11-21T05:22:06;8.40;99.90
41630;DHT22;27322;49.488;8.480;2022-11-21T05:24:32;8.40;99.90
41630;DHT22;27322;49.488;8.480;2022-11-21T05:26:58;8.40;99.90
41630;DHT22;27322;49.488;8.480;2022-11-21T05:29:23;8.40;99.90
41630;DHT22;27322;49.488;8.480;2022-11-21T05:31:49;8.40;99.90
41630;DHT22;27322;49.488;8.480;2022-11-21T05:34:14;8.40;99.90
41630;DHT22;27322;49.488;8.480;2022-11-21T05:36:40;8.40;99.90
41630;DHT22;27322;49.488;8.480;2022-11-21T05:39:06;8.40;99.90
41630;DHT22;27322;49.488;8.480;2022-11-21T05:41:31;8.40;99.90
41630;DHT22;27322;49.488;8.480;2022-11-21T05:43:57;8.40;99.90
41630;DHT22;27322;49.488;8.480;2022-11-21T05:46:25;8.30;99.90
41630;DHT22;27322;49.488;8.480;2022-11-21T05:48:52;8.40;99.90
41630;DHT22;27322;49.488;8.480;2022-11-21T05:51:18;8.40;99.90
41630;DHT22;27322;49.488;8.480;2022-11-21T05:53:45;8.40;99.90
41630;DHT22;27322;49.488;8.480;2022-11-21T05:56:14;8.40;99.90
41630;DHT22;27322;49.488;8.480;2022-11-21T05:58:41;8.40;99.90
41630;DHT22;27322;49.488;8.480;2022-11-21T06:01:08;8.40;99.90
41630;DHT22;27322;49.488;8.480;2022-11-21T06:03:37;8.40;99.90
41630;DHT22;27322;49.488;8.480;2022-11-21T06:06:25;8.40;99.90
41630;DHT22;27322;49.488;8.480;2022-11-21T06:08:50;8.40;99.90
41630;DHT22;27322;49.488;8.480;2022-11-21T06:11:16;8.40;99.90
41630;DHT22;27322;49.488;8.480;2022-11-21T06:13:41;8.50;99.90
41630;DHT22;27322;49.488;8.480;2022-11-21T06:16:12;8.50;99.90
41630;DHT22;27322;49.488;8.480;2022-11-21T06:18:40;8.40;99.90
41630;DHT22;27322;49.488;8.480;2022-11-21T06:21:12;8.40;99.90
41630;DHT22;27322;49.488;8.480;2022-11-21T06:23:38;8.40;99.90
41630;DHT22;27322;49.488;8.480;2022-11-21T06:26:06;8.40;99.90
41630;DHT22;27322;49.488;8.480;2022-11-21T06:28:35;8.40;99.90
41630;DHT22;27322;49.488;8.480;2022-11-21T06:31:12;8.40;99.90
41630;DHT22;27322;49.488;8.480;2022-11-21T06:33:39;8.40;99.90
41630;DHT22;27322;49.488;8.480;2022-11-21T06:36:07;8.40;99.90
41630;DHT22;27322;49.488;8.480;2022-11-21T06:38:33;8.40;99.90
41630;DHT22;27322;49.488;8.480;2022-11-21T06:41:18;8.40;99.90
41630;DHT22;27322;49.488;8.480;2022-11-21T06:43:44;8.40;99.90
41630;DHT22;27322;49.488;8.480;2022-11-21T06:46:11;8.40;99.90
41630;DHT22;27322;49.488;8.480;2022-11-21T06:48:37;8.30;99.90
41630;DHT22;27322;49.488;8.480;2022-11-21T06:51:18;8.40;99.90
41630;DHT22;27322;49.488;8.480;2022-11-21T06:53:44;8.40;99.90
41630;DHT22;27322;49.488;8.480;2022-11-21T06:56:10;8.30;99.90
41630;DHT22;27322;49.488;8.480;2022-11-21T06:58:36;8.40;99.90
41630;DHT22;27322;49.488;8.480;2022-11-21T07:01:06;8.30;99.90
41630;DHT22;27322;49.488;8.480;2022-11-21T07:03:32;8.30;99.90
41630;DHT22;27322;49.488;8.480;2022-11-21T07:05:59;8.30;99.90
41630;DHT22;27322;49.488;8.480;2022-11-21T07:08:27;8.40;99.90
41630;DHT22;27322;49.488;8.480;2022-11-21T07:10:52;8.40;99.90
41630;DHT22;27322;49.488;8.480;2022-11-21T07:13:18;8.40;99.90
41630;DHT22;27322;49.488;8.480;2022-11-21T07:15:48;8.40;99.90
41630;DHT22;27322;49.488;8.480;2022-11-21T07:18:14;8.40;99.90
41630;DHT22;27322;49.488;8.480;2022-11-21T07:20:40;8.40;99.90
41630;DHT22;27322;49.488;8.480;2022-11-21T07:23:06;8.40;99.90
41630;DHT22;27322;49.488;8.480;2022-11-21T07:25:32;8.50;99.90
41630;DHT22;27322;49.488;8.480;2022-11-21T07:27:59;8.50;99.90
41630;DHT22;27322;49.488;8.480;2022-11-21T07:30:25;8.50;99.90
41630;DHT22;27322;49.488;8.480;2022-11-21T07:32:58;8.50;99.90
41630;DHT22;27322;49.488;8.480;2022-11-21T07:35:24;8.50;99.90
41630;DHT22;27322;49.488;8.480;2022-11-21T07:37:50;8.50;99.90
41630;DHT22;27322;49.488;8.480;2022-11-21T07:40:17;8.50;99.90
41630;DHT22;27322;49.488;8.480;2022-11-21T07:42:43;8.50;99.90
41630;DHT22;27322;49.488;8.480;2022-11-21T07:45:09;8.50;99.90
41630;DHT22;27322;49.488;8.480;2022-11-21T07:47:35;8.50;99.90
41630;DHT22;27322;49.488;8.480;2022-11-21T07:50:01;8.50;99.90
41630;DHT22;27322;49.488;8.480;2022-11-21T07:52:27;8.50;99.90
41630;DHT22;27322;49.488;8.480;2022-11-21T07:54:55;8.50;99.90
41630;DHT22;27322;49.488;8.480;2022-11-21T07:57:24;8.50;99.90
41630;DHT22;27322;49.488;8.480;2022-11-21T07:59:49;8.50;99.90
41630;DHT22;27322;49.488;8.480;2022-11-21T08:04:45;8.60;99.90
41630;DHT22;27322;49.488;8.480;2022-11-21T08:07:10;8.50;99.90
41630;DHT22;27322;49.488;8.480;2022-11-21T08:09:36;8.50;99.90
41630;DHT22;27322;49.488;8.480;2022-11-21T08:12:02;8.60;99.90
41630;DHT22;27322;49.488;8.480;2022-11-21T08:14:27;8.60;99.90
41630;DHT22;27322;49.488;8.480;2022-11-21T08:16:53;8.60;99.90
41630;DHT22;27322;49.488;8.480;2022-11-21T08:19:18;8.50;99.90
41630;DHT22;27322;49.488;8.480;2022-11-21T08:21:44;8.50;99.90
41630;DHT22;27322;49.488;8.480;2022-11-21T08:24:10;8.50;99.90
41630;DHT22;27322;49.488;8.480;2022-11-21T08:26:42;8.50;99.90
41630;DHT22;27322;49.488;8.480;2022-11-21T08:29:09;8.60;99.90
41630;DHT22;27322;49.488;8.480;2022-11-21T08:31:35;8.50;99.90
41630;DHT22;27322;49.488;8.480;2022-11-21T08:34:01;8.50;99.90
41630;DHT22;27322;49.488;8.480;2022-11-21T08:36:27;8.60;99.90
41630;DHT22;27322;49.488;8.480;2022-11-21T08:38:52;8.60;99.90
41630;DHT22;27322;49.488;8.480;2022-11-21T08:41:18;8.60;99.90
41630;DHT22;27322;49.488;8.480;2022-11-21T08:44:02;8.60;99.90
41630;DHT22;27322;49.488;8.480;2022-11-21T08:46:27;8.70;99.90
41630;DHT22;27322;49.488;8.480;2022-11-21T08:48:54;8.70;99.90
41630;DHT22;27322;49.488;8.480;2022-11-21T08:51:20;8.70;99.90
41630;DHT22;27322;49.488;8.480;2022-11-21T08:53:46;8.70;99.90
41630;DHT22;27322;49.488;8.480;2022-11-21T08:56:11;8.70;99.90
41630;DHT22;27322;49.488;8.480;2022-11-21T08:58:38;8.70;99.90
41630;DHT22;27322;49.488;8.480;2022-11-21T09:01:04;8.70;99.90
41630;DHT22;27322;49.488;8.480;2022-11-21T09:03:30;8.70;99.90
41630;DHT22;27322;49.488;8.480;2022-11-21T09:05:56;8.70;99.90
41630;DHT22;27322;49.488;8.480;2022-11-21T09:08:21;8.70;99.90
41630;DHT22;27322;49.488;8.480;2022-11-21T09:10:47;8.70;99.90
41630;DHT22;27322;49.488;8.480;2022-11-21T09:13:13;8.70;99.90
41630;DHT22;27322;49.488;8.480;2022-11-21T09:15:38;8.70;99.90
41630;DHT22;27322;49.488;8.480;2022-11-21T09:18:22;8.70;99.90
41630;DHT22;27322;49.488;8.480;2022-11-21T09:20:48;8.80;99.90
41630;DHT22;27322;49.488;8.480;2022-11-21T09:23:15;8.80;99.90
41630;DHT22;27322;49.488;8.480;2022-11-21T09:25:41;8.90;99.90
41630;DHT22;27322;49.488;8.480;2022-11-21T09:28:08;8.90;99.90
41630;DHT22;27322;49.488;8.480;2022-11-21T09:30:34;8.90;99.90
41630;DHT22;27322;49.488;8.480;2022-11-21T09:33:09;9.00;99.90
41630;DHT22;27322;49.488;8.480;2022-11-21T09:35:35;9.00;99.90
41630;DHT22;27322;49.488;8.480;2022-11-21T09:38:01;9.10;99.90
41630;DHT22;27322;49.488;8.480;2022-11-21T09:40:30;9.10;99.90
41630;DHT22;27322;49.488;8.480;2022-11-21T09:43:26;9.20;99.90
41630;DHT22;27322;49.488;8.480;2022-11-21T09:46:09;9.20;99.90
41630;DHT22;27322;49.488;8.480;2022-11-21T09:48:48;9.30;99.90
41630;DHT22;27322;49.488;8.480;2022-11-21T09:51:18;9.30;99.90
41630;DHT22;27322;49.488;8.480;2022-11-21T09:56:14;9.40;99.90
41630;DHT22;27322;49.488;8.480;2022-11-21T10:01:51;9.40;99.90
41630;DHT22;27322;49.488;8.480;2022-11-21T10:04:17;9.50;99.90
41630;DHT22;27322;49.488;8.480;2022-11-21T10:07:10;9.40;99.90
41630;DHT22;27322;49.488;8.480;2022-11-21T10:09:56;9.50;99.90
41630;DHT22;27322;49.488;8.480;2022-11-21T10:15:12;9.50;99.90
41630;DHT22;27322;49.488;8.480;2022-11-21T10:26:22;9.60;99.90
41630;DHT22;27322;49.488;8.480;2022-11-21T10:31:40;9.70;99.90
41630;DHT22;27322;49.488;8.480;2022-11-21T10:34:14;9.70;99.90
41630;DHT22;27322;49.488;8.480;2022-11-21T10:36:42;9.80;99.90
41630;DHT22;27322;49.488;8.480;2022-11-21T10:39:21;9.80;99.90
41630;DHT22;27322;49.488;8.480;2022-11-21T10:44:34;9.90;99.90
41630;DHT22;27322;49.488;8.480;2022-11-21T10:47:23;10.00;99.90
41630;DHT22;27322;49.488;8.480;2022-11-21T10:49:55;10.00;99.90
41630;DHT22;27322;49.488;8.480;2022-11-21T10:52:24;10.10;99.90
41630;DHT22;27322;49.488;8.480;2022-11-21T10:57:31;10.00;99.90
41630;DHT22;27322;49.488;8.480;2022-11-21T11:00:24;9.90;99.90
41630;DHT22;27322;49.488;8.480;2022-11-21T11:03:01;10.00;99.90
41630;DHT22;27322;49.488;8.480;2022-11-21T11:05:37;9.90;99.90
41630;DHT22;27322;49.488;8.480;2022-11-21T11:08:09;9.90;99.90
41630;DHT22;27322;49.488;8.480;2022-11-21T11:10:43;9.90;99.90
41630;DHT22;27322;49.488;8.480;2022-11-21T11:13:19;9.90;99.90
41630;DHT22;27322;49.488;8.480;2022-11-21T11:18:38;9.90;99.90
41630;DHT22;27322;49.488;8.480;2022-11-21T11:21:15;9.90;99.90
41630;DHT22;27322;49.488;8.480;2022-11-21T11:23:42;9.90;99.90
41630;DHT22;27322;49.488;8.480;2022-11-21T11:26:28;9.90;99.90
41630;DHT22;27322;49.488;8.480;2022-11-21T11:29:14;10.00;99.90
41630;DHT22;27322;49.488;8.480;2022-11-21T11:34:13;9.90;99.90
41630;DHT22;27322;49.488;8.480;2022-11-21T11:37:08;9.90;99.90
41630;DHT22;27322;49.488;8.480;2022-11-21T11:47:58;10.00;99.90
41630;DHT22;27322;49.488;8.480;2022-11-21T11:50:30;10.00;99.90
41630;DHT22;27322;49.488;8.480;2022-11-21T11:53:32;10.00;99.90
41630;DHT22;27322;49.488;8.480;2022-11-21T11:56:12;10.00;99.90
41630;DHT22;27322;49.488;8.480;2022-11-21T12:14:39;9.80;99.90
41630;DHT22;27322;49.488;8.480;2022-11-21T12:17:53;9.90;99.90
41630;DHT22;27322;49.488;8.480;2022-11-21T12:20:22;9.80;99.90
41630;DHT22;27322;49.488;8.480;2022-11-21T12:22:51;9.90;99.90
41630;DHT22;27322;49.488;8.480;2022-11-21T12:25:24;9.90;99.90
41630;DHT22;27322;49.488;8.480;2022-11-21T12:27:54;9.90;99.90
41630;DHT22;27322;49.488;8.480;2022-11-21T12:33:05;9.90;99.90
41630;DHT22;27322;49.488;8.480;2022-11-21T12:38:44;9.90;99.90
41630;DHT22;27322;49.488;8.480;2022-11-21T12:41:29;9.90;99.90
41630;DHT22;27322;49.488;8.480;2022-11-21T12:52:47;10.00;99.90
41630;DHT22;27322;49.488;8.480;2022-11-21T12:55:39;10.00;99.90
41630;DHT22;27322;49.488;8.480;2022-11-21T13:05:49;10.00;99.90
41630;DHT22;27322;49.488;8.480;2022-11-21T13:08:20;10.00;99.90
41630;DHT22;27322;49.488;8.480;2022-11-21T13:13:42;10.00;99.90
41630;DHT22;27322;49.488;8.480;2022-11-21T13:16:19;10.00;99.90
41630;DHT22;27322;49.488;8.480;2022-11-21T13:19:34;10.00;99.90
41630;DHT22;27322;49.488;8.480;2022-11-21T13:21:51;10.00;99.90
41630;DHT22;27322;49.488;8.480;2022-11-21T13:24:53;10.10;99.90
41630;DHT22;27322;49.488;8.480;2022-11-21T13:32:53;10.10;99.90
41630;DHT22;27322;49.488;8.480;2022-11-21T13:40:35;10.10;99.90
41630;DHT22;27322;49.488;8.480;2022-11-21T13:45:49;10.20;99.90
41630;DHT22;27322;49.488;8.480;2022-11-21T13:53:53;10.20;99.90
41630;DHT22;27322;49.488;8.480;2022-11-21T13:56:29;10.20;99.90
41630;DHT22;27322;49.488;8.480;2022-11-21T14:02:04;10.30;99.90
41630;DHT22;27322;49.488;8.480;2022-11-21T14:07:32;10.30;99.90
41630;DHT22;27322;49.488;8.480;2022-11-21T14:10:05;10.30;99.90
41630;DHT22;27322;49.488;8.480;2022-11-21T14:12:47;10.30;99.90
41630;DHT22;27322;49.488;8.480;2022-11-21T14:17:56;10.20;99.90
41630;DHT22;27322;49.488;8.480;2022-11-21T14:20:28;10.20;99.90
41630;DHT22;27322;49.488;8.480;2022-11-21T14:23:01;10.20;99.90
41630;DHT22;27322;49.488;8.480;2022-11-21T14:28:04;10.20;99.90
41630;DHT22;27322;49.488;8.480;2022-11-21T14:30:36;10.10;99.90
41630;DHT22;27322;49.488;8.480;2022-11-21T14:33:26;10.10;99.90
41630;DHT22;27322;49.488;8.480;2022-11-21T14:38:24;10.10;99.90
41630;DHT22;27322;49.488;8.480;2022-11-21T14:40:50;10.10;99.90
41630;DHT22;27322;49.488;8.480;2022-11-21T14:43:35;10.10;99.90
41630;DHT22;27322;49.488;8.480;2022-11-21T14:46:01;10.00;99.90
41630;DHT22;27322;49.488;8.480;2022-11-21T14:48:28;10.00;99.90
41630;DHT22;27322;49.488;8.480;2022-11-21T14:50:56;10.00;99.90
41630;DHT22;27322;49.488;8.480;2022-11-21T14:53:23;10.00;99.90
41630;DHT22;27322;49.488;8.480;2022-11-21T14:55:50;10.00;99.90
41630;DHT22;27322;49.488;8.480;2022-11-21T14:58:20;10.00;99.90
41630;DHT22;27322;49.488;8.480;2022-11-21T15:01:05;10.00;99.90
41630;DHT22;27322;49.488;8.480;2022-11-21T15:03:32;10.00;99.90
41630;DHT22;27322;49.488;8.480;2022-11-21T15:06:00;9.90;99.90
41630;DHT22;27322;49.488;8.480;2022-11-21T15:08:25;9.90;99.90
41630;DHT22;27322;49.488;8.480;2022-11-21T15:10:52;9.90;99.90
41630;DHT22;27322;49.488;8.480;2022-11-21T15:13:18;9.90;99.90
41630;DHT22;27322;49.488;8.480;2022-11-21T15:15:49;9.90;99.90
41630;DHT22;27322;49.488;8.480;2022-11-21T15:18:23;9.90;99.90
41630;DHT22;27322;49.488;8.480;2022-11-21T15:20:50;9.80;99.90
41630;DHT22;27322;49.488;8.480;2022-11-21T15:25:56;9.80;99.90
41630;DHT22;27322;49.488;8.480;2022-11-21T15:28:23;9.80;99.90
41630;DHT22;27322;49.488;8.480;2022-11-21T15:36:19;9.70;99.90
41630;DHT22;27322;49.488;8.480;2022-11-21T15:39:03;9.70;99.90
41630;DHT22;27322;49.488;8.480;2022-11-21T15:41:30;9.70;99.90
41630;DHT22;27322;49.488;8.480;2022-11-21T15:46:33;9.60;99.90
41630;DHT22;27322;49.488;8.480;2022-11-21T15:49:00;9.60;99.90
41630;DHT22;27322;49.488;8.480;2022-11-21T15:51:33;9.50;99.90
41630;DHT22;27322;49.488;8.480;2022-11-21T15:53:59;9.50;99.90
41630;DHT22;27322;49.488;8.480;2022-11-21T15:56:26;9.50;99.90
41630;DHT22;27322;49.488;8.480;2022-11-21T15:58:51;9.40;99.90
41630;DHT22;27322;49.488;8.480;2022-11-21T16:01:19;9.40;99.90
41630;DHT22;27322;49.488;8.480;2022-11-21T16:03:48;9.40;99.90
41630;DHT22;27322;49.488;8.480;2022-11-21T16:06:14;9.30;99.90
41630;DHT22;27322;49.488;8.480;2022-11-21T16:08:39;9.30;99.90
41630;DHT22;27322;49.488;8.480;2022-11-21T16:11:05;9.30;99.90
41630;DHT22;27322;49.488;8.480;2022-11-21T16:13:31;9.30;99.90
41630;DHT22;27322;49.488;8.480;2022-11-21T16:15:59;9.20;99.90
41630;DHT22;27322;49.488;8.480;2022-11-21T16:18:25;9.20;99.90
41630;DHT22;27322;49.488;8.480;2022-11-21T16:20:51;9.20;99.90
41630;DHT22;27322;49.488;8.480;2022-11-21T16:23:16;9.10;99.90
41630;DHT22;27322;49.488;8.480;2022-11-21T16:25:52;9.10;99.90
41630;DHT22;27322;49.488;8.480;2022-11-21T16:28:18;9.10;99.90
41630;DHT22;27322;49.488;8.480;2022-11-21T16:30:44;9.10;99.90
41630;DHT22;27322;49.488;8.480;2022-11-21T16:33:09;9.00;99.90
41630;DHT22;27322;49.488;8.480;2022-11-21T16:35:37;9.00;99.90
41630;DHT22;27322;49.488;8.480;2022-11-21T16:38:09;9.00;99.90
41630;DHT22;27322;49.488;8.480;2022-11-21T16:40:35;9.00;99.90
41630;DHT22;27322;49.488;8.480;2022-11-21T16:43:08;8.90;99.90
41630;DHT22;27322;49.488;8.480;2022-11-21T16:45:35;8.90;99.90
41630;DHT22;27322;49.488;8.480;2022-11-21T16:48:01;8.90;99.90
41630;DHT22;27322;49.488;8.480;2022-11-21T16:50:26;8.80;99.90
41630;DHT22;27322;49.488;8.480;2022-11-21T16:52:52;8.80;99.90
41630;DHT22;27322;49.488;8.480;2022-11-21T16:55:17;8.80;99.90
41630;DHT22;27322;49.488;8.480;2022-11-21T16:57:43;8.80;99.90
41630;DHT22;27322;49.488;8.480;2022-11-21T17:00:09;8.80;99.90
41630;DHT22;27322;49.488;8.480;2022-11-21T17:02:37;8.80;99.90
41630;DHT22;27322;49.488;8.480;2022-11-21T17:05:03;8.80;99.90
41630;DHT22;27322;49.488;8.480;2022-11-21T17:07:32;8.80;99.90
41630;DHT22;27322;49.488;8.480;2022-11-21T17:09:58;8.70;99.90
41630;DHT22;27322;49.488;8.480;2022-11-21T17:12:24;8.70;99.90
41630;DHT22;27322;49.488;8.480;2022-11-21T17:14:50;8.70;99.90
41630;DHT22;27322;49.488;8.480;2022-11-21T17:17:16;8.70;99.90
41630;DHT22;27322;49.488;8.480;2022-11-21T17:19:43;8.70;99.90
41630;DHT22;27322;49.488;8.480;2022-11-21T17:22:08;8.70;99.90
41630;DHT22;27322;49.488;8.480;2022-11-21T17:24:34;8.60;99.90
41630;DHT22;27322;49.488;8.480;2022-11-21T17:27:00;8.60;99.90
41630;DHT22;27322;49.488;8.480;2022-11-21T17:29:27;8.60;99.90
41630;DHT22;27322;49.488;8.480;2022-11-21T17:31:53;8.60;99.90
41630;DHT22;27322;49.488;8.480;2022-11-21T17:34:19;8.60;99.90
41630;DHT22;27322;49.488;8.480;2022-11-21T17:36:44;8.70;99.90
41630;DHT22;27322;49.488;8.480;2022-11-21T17:39:10;8.60;99.90
41630;DHT22;27322;49.488;8.480;2022-11-21T17:41:37;8.70;99.90
41630;DHT22;27322;49.488;8.480;2022-11-21T17:44:04;8.60;99.90
41630;DHT22;27322;49.488;8.480;2022-11-21T17:46:30;8.70;99.90
41630;DHT22;27322;49.488;8.480;2022-11-21T17:48:57;8.70;99.90
41630;DHT22;27322;49.488;8.480;2022-11-21T17:51:31;8.70;99.90
41630;DHT22;27322;49.488;8.480;2022-11-21T17:53:57;8.70;99.90
41630;DHT22;27322;49.488;8.480;2022-11-21T17:56:26;8.70;99.90
41630;DHT22;27322;49.488;8.480;2022-11-21T17:58:52;8.70;99.90
41630;DHT22;27322;49.488;8.480;2022-11-21T18:01:18;8.70;99.90
41630;DHT22;27322;49.488;8.480;2022-11-21T18:03:45;8.80;99.90
41630;DHT22;27322;49.488;8.480;2022-11-21T18:06:14;8.70;99.90